sensor_id;sensor_type;location;lat;lon;timestamp;pressure;altitude;pressure_sealevel;temperature;humidity
19890;BME280;10107;51.198;6.824;2022-12-13T00:00:18;-21178.00;;;-5.44;100.00
19890;BME280;10107;51.198;6.824;2022-12-13T00:04:20;-21177.47;;;-5.46;100.00
19890;BME280;10107;51.198;6.824;2022-12-13T00:08:22;-21176.25;;;-5.51;100.00
19890;BME280;10107;51.198;6.824;2022-12-13T00:12:25;-21174.50;;;-5.58;100.00
19890;BME280;10107;51.198;6.824;2022-12-13T00:16:27;-21173.81;;;-5.60;100.00
19890;BME280;10107;51.198;6.824;2022-12-13T00:20:28;-21173.13;;;-5.63;100.00
19890;BME280;10107;51.198;6.824;2022-12-13T00:24:30;-21171.91;;;-5.67;100.00
19890;BME280;10107;51.198;6.824;2022-12-13T00:28:33;-21171.38;;;-5.69;100.00
19890;BME280;10107;51.198;6.824;2022-12-13T00:32:35;-21170.56;;;-5.72;100.00
19890;BME280;10107;51.198;6.824;2022-12-13T00:36:37;-21169.75;;;-5.75;100.00
19890;BME280;10107;51.198;6.824;2022-12-13T00:40:38;-21169.59;;;-5.76;100.00
19890;BME280;10107;51.198;6.824;2022-12-13T00:44:41;-21168.66;;;-5.80;100.00
19890;BME280;10107;51.198;6.824;2022-12-13T00:48:43;-21167.44;;;-5.84;100.00
19890;BME280;10107;51.198;6.824;2022-12-13T00:52:48;-21167.03;;;-5.86;100.00
19890;BME280;10107;51.198;6.824;2022-12-13T00:56:50;-21166.34;;;-5.88;100.00
19890;BME280;10107;51.198;6.824;2022-12-13T01:01:00;-21165.41;;;-5.92;100.00
19890;BME280;10107;51.198;6.824;2022-12-13T01:05:02;-21164.47;;;-5.95;100.00
19890;BME280;10107;51.198;6.824;2022-12-13T01:09:04;-21164.06;;;-5.97;100.00
19890;BME280;10107;51.198;6.824;2022-12-13T01:13:06;-21164.06;;;-5.97;100.00
19890;BME280;10107;51.198;6.824;2022-12-13T01:17:10;-21165.28;;;-5.92;100.00
19890;BME280;10107;51.198;6.824;2022-12-13T01:21:13;-21165.69;;;-5.91;100.00
19890;BME280;10107;51.198;6.824;2022-12-13T01:25:17;-21165.53;;;-5.91;100.00
19890;BME280;10107;51.198;6.824;2022-12-13T01:29:19;-21165.94;;;-5.90;100.00
19890;BME280;10107;51.198;6.824;2022-12-13T01:33:22;-21166.63;;;-5.87;100.00
19890;BME280;10107;51.198;6.824;2022-12-13T01:37:23;-21166.50;;;-5.88;100.00
19890;BME280;10107;51.198;6.824;2022-12-13T01:41:26;-21166.50;;;-5.88;100.00
19890;BME280;10107;51.198;6.824;2022-12-13T01:45:30;-21165.69;;;-5.91;100.00
19890;BME280;10107;51.198;6.824;2022-12-13T01:49:33;-21165.28;;;-5.92;100.00
19890;BME280;10107;51.198;6.824;2022-12-13T01:53:36;-21164.88;;;-5.94;100.00
19890;BME280;10107;51.198;6.824;2022-12-13T01:57:39;-21163.50;;;-5.99;100.00
19890;BME280;10107;51.198;6.824;2022-12-13T02:01:43;-21162.28;;;-6.04;100.00
19890;BME280;10107;51.198;6.824;2022-12-13T02:05:49;-21161.22;;;-6.08;100.00
19890;BME280;10107;51.198;6.824;2022-12-13T02:09:54;-21160.94;;;-6.09;100.00
19890;BME280;10107;51.198;6.824;2022-12-13T02:13:56;-21160.81;;;-6.09;100.00
19890;BME280;10107;51.198;6.824;2022-12-13T02:18:07;-21160.66;;;-6.10;100.00
19890;BME280;10107;51.198;6.824;2022-12-13T02:22:20;-21160.53;;;-6.10;100.00
19890;BME280;10107;51.198;6.824;2022-12-13T02:26:38;-21159.59;;;-6.14;100.00
19890;BME280;10107;51.198;6.824;2022-12-13T02:30:45;-21158.91;;;-6.17;100.00
19890;BME280;10107;51.198;6.824;2022-12-13T02:34:50;-21159.59;;;-6.14;100.00
19890;BME280;10107;51.198;6.824;2022-12-13T02:38:55;-21159.84;;;-6.13;100.00
19890;BME280;10107;51.198;6.824;2022-12-13T02:42:59;-21159.72;;;-6.13;100.00
19890;BME280;10107;51.198;6.824;2022-12-13T02:47:04;-21159.03;;;-6.16;100.00
19890;BME280;10107;51.198;6.824;2022-12-13T02:51:09;-21157.81;;;-6.21;100.00
19890;BME280;10107;51.198;6.824;2022-12-13T02:55:12;-21156.88;;;-6.24;100.00
19890;BME280;10107;51.198;6.824;2022-12-13T02:59:14;-21156.06;;;-6.27;100.00
19890;BME280;10107;51.198;6.824;2022-12-13T03:03:21;-21155.25;;;-6.30;100.00
19890;BME280;10107;51.198;6.824;2022-12-13T03:07:27;-21153.63;;;-6.37;100.00
19890;BME280;10107;51.198;6.824;2022-12-13T03:11:30;-21153.06;;;-6.39;100.00
19890;BME280;10107;51.198;6.824;2022-12-13T03:15:54;-21152.81;;;-6.40;100.00
19890;BME280;10107;51.198;6.824;2022-12-13T03:19:59;-21152.81;;;-6.40;100.00
19890;BME280;10107;51.198;6.824;2022-12-13T03:24:02;-21152.13;;;-6.42;100.00
19890;BME280;10107;51.198;6.824;2022-12-13T03:28:03;-21151.59;;;-6.44;100.00
19890;BME280;10107;51.198;6.824;2022-12-13T03:32:05;-21151.03;;;-6.46;100.00
19890;BME280;10107;51.198;6.824;2022-12-13T03:36:08;-21150.91;;;-6.47;100.00
19890;BME280;10107;51.198;6.824;2022-12-13T03:40:10;-21150.63;;;-6.48;100.00
19890;BME280;10107;51.198;6.824;2022-12-13T03:44:12;-21150.22;;;-6.49;100.00
19890;BME280;10107;51.198;6.824;2022-12-13T03:48:13;-21149.81;;;-6.51;100.00
19890;BME280;10107;51.198;6.824;2022-12-13T03:52:16;-21149.81;;;-6.51;100.00
19890;BME280;10107;51.198;6.824;2022-12-13T03:56:18;-21150.09;;;-6.50;100.00
19890;BME280;10107;51.198;6.824;2022-12-13T04:00:20;-21149.53;;;-6.52;100.00
19890;BME280;10107;51.198;6.824;2022-12-13T04:04:21;-21148.31;;;-6.57;100.00
19890;BME280;10107;51.198;6.824;2022-12-13T04:08:24;-21148.06;;;-6.58;100.00
19890;BME280;10107;51.198;6.824;2022-12-13T04:12:26;-21147.09;;;-6.61;100.00
19890;BME280;10107;51.198;6.824;2022-12-13T04:16:45;-21146.28;;;-6.64;100.00
19890;BME280;10107;51.198;6.824;2022-12-13T04:20:47;-21144.66;;;-6.70;100.00
19890;BME280;10107;51.198;6.824;2022-12-13T04:24:49;-21144.78;;;-6.70;100.00
19890;BME280;10107;51.198;6.824;2022-12-13T04:28:52;-21144.53;;;-6.71;100.00
19890;BME280;10107;51.198;6.824;2022-12-13T04:32:54;-21144.94;;;-6.69;100.00
19890;BME280;10107;51.198;6.824;2022-12-13T04:36:55;-21145.63;;;-6.67;100.00
19890;BME280;10107;51.198;6.824;2022-12-13T04:41:06;-21145.88;;;-6.66;100.00
19890;BME280;10107;51.198;6.824;2022-12-13T04:45:08;-21146.69;;;-6.63;100.00
19890;BME280;10107;51.198;6.824;2022-12-13T04:49:10;-21145.63;;;-6.67;100.00
19890;BME280;10107;51.198;6.824;2022-12-13T04:53:12;-21145.22;;;-6.68;100.00
19890;BME280;10107;51.198;6.824;2022-12-13T04:57:15;-21146.16;;;-6.65;100.00
19890;BME280;10107;51.198;6.824;2022-12-13T05:01:17;-21147.25;;;-6.61;100.00
19890;BME280;10107;51.198;6.824;2022-12-13T05:05:21;-21149.13;;;-6.53;100.00
19890;BME280;10107;51.198;6.824;2022-12-13T05:09:23;-21150.75;;;-6.47;100.00
19890;BME280;10107;51.198;6.824;2022-12-13T05:13:26;-21151.72;;;-6.44;100.00
19890;BME280;10107;51.198;6.824;2022-12-13T05:17:28;-21154.16;;;-6.34;100.00
19890;BME280;10107;51.198;6.824;2022-12-13T05:21:29;-21158.78;;;-6.17;100.00
19890;BME280;10107;51.198;6.824;2022-12-13T05:25:34;-21161.88;;;-6.05;100.00
19890;BME280;10107;51.198;6.824;2022-12-13T05:29:37;-21165.00;;;-5.93;100.00
19890;BME280;10107;51.198;6.824;2022-12-13T05:33:39;-21166.09;;;-5.89;100.00
19890;BME280;10107;51.198;6.824;2022-12-13T05:37:41;-21166.22;;;-5.89;100.00
19890;BME280;10107;51.198;6.824;2022-12-13T05:41:50;-21166.91;;;-5.86;100.00
19890;BME280;10107;51.198;6.824;2022-12-13T05:45:54;-21167.31;;;-5.85;100.00
19890;BME280;10107;51.198;6.824;2022-12-13T05:49:56;-21167.84;;;-5.83;100.00
19890;BME280;10107;51.198;6.824;2022-12-13T05:54:00;-21168.38;;;-5.81;100.00
19890;BME280;10107;51.198;6.824;2022-12-13T05:58:01;-21168.66;;;-5.80;100.00
19890;BME280;10107;51.198;6.824;2022-12-13T06:02:05;-21169.06;;;-5.78;100.00
19890;BME280;10107;51.198;6.824;2022-12-13T06:06:07;-21169.59;;;-5.76;100.00
19890;BME280;10107;51.198;6.824;2022-12-13T06:10:09;-21170.00;;;-5.74;100.00
19890;BME280;10107;51.198;6.824;2022-12-13T06:14:10;-21169.47;;;-5.77;100.00
19890;BME280;10107;51.198;6.824;2022-12-13T06:18:13;-21169.34;;;-5.77;100.00
19890;BME280;10107;51.198;6.824;2022-12-13T06:22:14;-21168.13;;;-5.82;100.00
19890;BME280;10107;51.198;6.824;2022-12-13T06:26:16;-21167.84;;;-5.83;100.00
19890;BME280;10107;51.198;6.824;2022-12-13T06:30:17;-21168.66;;;-5.80;100.00
19890;BME280;10107;51.198;6.824;2022-12-13T06:34:20;-21168.38;;;-5.81;100.00
19890;BME280;10107;51.198;6.824;2022-12-13T06:38:22;-21167.16;;;-5.85;100.00
19890;BME280;10107;51.198;6.824;2022-12-13T06:42:23;-21168.13;;;-5.82;100.00
19890;BME280;10107;51.198;6.824;2022-12-13T06:46:25;-21167.84;;;-5.83;100.00
19890;BME280;10107;51.198;6.824;2022-12-13T06:50:28;-21167.56;;;-5.84;100.00
19890;BME280;10107;51.198;6.824;2022-12-13T06:54:29;-21167.16;;;-5.85;100.00
19890;BME280;10107;51.198;6.824;2022-12-13T06:58:31;-21167.72;;;-5.83;100.00
19890;BME280;10107;51.198;6.824;2022-12-13T07:02:32;-21168.25;;;-5.81;100.00
19890;BME280;10107;51.198;6.824;2022-12-13T07:06:35;-21168.38;;;-5.81;100.00
19890;BME280;10107;51.198;6.824;2022-12-13T07:10:37;-21167.84;;;-5.83;100.00
19890;BME280;10107;51.198;6.824;2022-12-13T07:14:40;-21167.72;;;-5.83;100.00
19890;BME280;10107;51.198;6.824;2022-12-13T07:18:41;-21167.16;;;-5.85;100.00
19890;BME280;10107;51.198;6.824;2022-12-13T07:22:44;-21166.75;;;-5.87;100.00
19890;BME280;10107;51.198;6.824;2022-12-13T07:26:52;-21166.50;;;-5.88;100.00
19890;BME280;10107;51.198;6.824;2022-12-13T07:30:54;-21165.94;;;-5.90;100.00
19890;BME280;10107;51.198;6.824;2022-12-13T07:34:55;-21166.91;;;-5.86;100.00
19890;BME280;10107;51.198;6.824;2022-12-13T07:38:58;-21167.84;;;-5.83;100.00
19890;BME280;10107;51.198;6.824;2022-12-13T07:43:00;-21169.06;;;-5.78;100.00
19890;BME280;10107;51.198;6.824;2022-12-13T07:47:01;-21169.34;;;-5.77;100.00
19890;BME280;10107;51.198;6.824;2022-12-13T07:51:04;-21170.16;;;-5.74;100.00
19890;BME280;10107;51.198;6.824;2022-12-13T07:55:07;-21171.91;;;-5.67;100.00
19890;BME280;10107;51.198;6.824;2022-12-13T07:59:09;-21172.59;;;-5.65;100.00
19890;BME280;10107;51.198;6.824;2022-12-13T08:03:11;-21173.94;;;-5.60;100.00
19890;BME280;10107;51.198;6.824;2022-12-13T08:07:12;-21175.03;;;-5.55;100.00
19890;BME280;10107;51.198;6.824;2022-12-13T08:11:15;-21175.84;;;-5.52;100.00
19890;BME280;10107;51.198;6.824;2022-12-13T08:15:17;-21177.34;;;-5.47;100.00
19890;BME280;10107;51.198;6.824;2022-12-13T08:19:19;-21179.78;;;-5.38;100.00
19890;BME280;10107;51.198;6.824;2022-12-13T08:23:20;-21181.81;;;-5.30;100.00
19890;BME280;10107;51.198;6.824;2022-12-13T08:27:23;-21183.56;;;-5.23;100.00
19890;BME280;10107;51.198;6.824;2022-12-13T08:31:24;-21185.31;;;-5.17;100.00
19890;BME280;10107;51.198;6.824;2022-12-13T08:35:26;-21185.47;;;-5.16;100.00
19890;BME280;10107;51.198;6.824;2022-12-13T08:39:30;-21186.00;;;-5.14;100.00
19890;BME280;10107;51.198;6.824;2022-12-13T08:43:33;-21188.31;;;-5.05;100.00
19890;BME280;10107;51.198;6.824;2022-12-13T08:47:35;-21190.88;;;-4.95;100.00
19890;BME280;10107;51.198;6.824;2022-12-13T08:51:36;-21195.06;;;-4.80;100.00
19890;BME280;10107;51.198;6.824;2022-12-13T08:55:38;-21198.88;;;-4.65;100.00
19890;BME280;10107;51.198;6.824;2022-12-13T08:59:40;-21211.44;;;-4.18;99.20
19890;BME280;10107;51.198;6.824;2022-12-13T09:03:42;-21288.81;;;-1.24;87.92
19890;BME280;10107;51.198;6.824;2022-12-13T09:07:43;-21442.47;;;4.64;62.45
19890;BME280;10107;51.198;6.824;2022-12-13T09:11:45;-21508.91;;;7.19;48.45
19890;BME280;10107;51.198;6.824;2022-12-13T09:15:48;-21455.44;;;5.13;50.30
19890;BME280;10107;51.198;6.824;2022-12-13T09:19:49;-21349.63;;;1.08;60.92
19890;BME280;10107;51.198;6.824;2022-12-13T09:23:51;-21297.03;;;-0.92;70.26
19890;BME280;10107;51.198;6.824;2022-12-13T09:27:52;-21270.34;;;-1.94;76.90
19890;BME280;10107;51.198;6.824;2022-12-13T09:31:55;-21253.06;;;-2.60;81.68
19890;BME280;10107;51.198;6.824;2022-12-13T09:35:57;-21248.88;;;-2.75;84.27
19890;BME280;10107;51.198;6.824;2022-12-13T09:39:58;-21249.81;;;-2.72;85.14
19890;BME280;10107;51.198;6.824;2022-12-13T09:44:00;-21247.66;;;-2.80;85.31
19890;BME280;10107;51.198;6.824;2022-12-13T09:48:04;-21252.78;;;-2.61;86.25
19890;BME280;10107;51.198;6.824;2022-12-13T09:52:09;-21259.53;;;-2.35;86.09
19890;BME280;10107;51.198;6.824;2022-12-13T09:56:13;-21261.44;;;-2.28;85.49
19890;BME280;10107;51.198;6.824;2022-12-13T10:00:15;-21259.28;;;-2.36;85.81
19890;BME280;10107;51.198;6.824;2022-12-13T10:04:18;-21256.84;;;-2.45;85.97
19890;BME280;10107;51.198;6.824;2022-12-13T10:08:21;-21257.94;;;-2.41;86.50
19890;BME280;10107;51.198;6.824;2022-12-13T10:12:23;-21260.91;;;-2.30;87.63
19890;BME280;10107;51.198;6.824;2022-12-13T10:16:25;-21264.81;;;-2.15;86.36
19890;BME280;10107;51.198;6.824;2022-12-13T10:20:29;-21273.56;;;-1.82;85.47
19890;BME280;10107;51.198;6.824;2022-12-13T10:24:46;-21282.75;;;-1.47;83.62
19890;BME280;10107;51.198;6.824;2022-12-13T10:28:48;-21280.31;;;-1.56;83.42
19890;BME280;10107;51.198;6.824;2022-12-13T10:32:51;-21278.97;;;-1.61;83.65
19890;BME280;10107;51.198;6.824;2022-12-13T10:36:54;-21278.69;;;-1.62;82.81
19890;BME280;10107;51.198;6.824;2022-12-13T10:40:56;-21277.22;;;-1.68;83.26
19890;BME280;10107;51.198;6.824;2022-12-13T10:45:07;-21282.47;;;-1.48;84.78
19890;BME280;10107;51.198;6.824;2022-12-13T10:49:13;-21286.66;;;-1.32;83.28
19890;BME280;10107;51.198;6.824;2022-12-13T10:53:17;-21290.41;;;-1.17;82.56
19890;BME280;10107;51.198;6.824;2022-12-13T10:57:20;-21308.88;;;-0.47;79.56
19890;BME280;10107;51.198;6.824;2022-12-13T11:01:21;-21320.03;;;-0.05;76.58
19890;BME280;10107;51.198;6.824;2022-12-13T11:05:24;-21349.22;;;1.07;72.53
19890;BME280;10107;51.198;6.824;2022-12-13T11:09:28;-21377.53;;;2.15;70.08
19890;BME280;10107;51.198;6.824;2022-12-13T11:13:32;-21385.97;;;2.47;67.14
19890;BME280;10107;51.198;6.824;2022-12-13T11:17:37;-21381.97;;;2.32;63.89
19890;BME280;10107;51.198;6.824;2022-12-13T11:21:45;-21395.38;;;2.83;63.68
19890;BME280;10107;51.198;6.824;2022-12-13T11:25:53;-21397.66;;;2.92;61.72
19890;BME280;10107;51.198;6.824;2022-12-13T11:34:16;-21386.78;;;2.50;63.49
19890;BME280;10107;51.198;6.824;2022-12-13T11:38:24;-21368.13;;;1.79;64.79
19890;BME280;10107;51.198;6.824;2022-12-13T11:42:28;-21360.09;;;1.48;66.86
19890;BME280;10107;51.198;6.824;2022-12-13T11:46:34;-21352.16;;;1.18;66.16
19890;BME280;10107;51.198;6.824;2022-12-13T11:50:38;-21341.97;;;0.79;67.86
19890;BME280;10107;51.198;6.824;2022-12-13T11:54:43;-21334.16;;;0.49;69.25
19890;BME280;10107;51.198;6.824;2022-12-13T11:58:49;-21328.38;;;0.27;71.11
19890;BME280;10107;51.198;6.824;2022-12-13T12:02:57;-21320.56;;;-0.03;70.80
19890;BME280;10107;51.198;6.824;2022-12-13T12:07:01;-21322.59;;;0.05;73.34
19890;BME280;10107;51.198;6.824;2022-12-13T12:11:07;-21325.03;;;0.14;73.70
19890;BME280;10107;51.198;6.824;2022-12-13T12:15:13;-21324.47;;;0.12;72.11
19890;BME280;10107;51.198;6.824;2022-12-13T12:19:17;-21322.72;;;0.06;73.72
19890;BME280;10107;51.198;6.824;2022-12-13T12:23:22;-21322.59;;;0.05;72.58
19890;BME280;10107;51.198;6.824;2022-12-13T12:27:30;-21322.59;;;0.05;71.99
19890;BME280;10107;51.198;6.824;2022-12-13T12:31:37;-21321.38;;;0.01;72.42
19890;BME280;10107;51.198;6.824;2022-12-13T12:35:47;-21322.31;;;0.04;71.46
19890;BME280;10107;51.198;6.824;2022-12-13T12:39:54;-21321.38;;;0.01;71.70
19890;BME280;10107;51.198;6.824;2022-12-13T12:44:03;-21323.28;;;0.08;73.50
19890;BME280;10107;51.198;6.824;2022-12-13T12:48:11;-21326.34;;;0.19;70.91
19890;BME280;10107;51.198;6.824;2022-12-13T12:52:20;-21329.06;;;0.30;70.95
19890;BME280;10107;51.198;6.824;2022-12-13T12:56:28;-21329.84;;;0.33;70.20
19890;BME280;10107;51.198;6.824;2022-12-13T13:00:38;-21324.63;;;0.13;69.16
19890;BME280;10107;51.198;6.824;2022-12-13T13:04:45;-21322.47;;;0.05;70.39
19890;BME280;10107;51.198;6.824;2022-12-13T13:08:49;-21320.16;;;-0.04;70.92
19890;BME280;10107;51.198;6.824;2022-12-13T13:12:55;-21320.84;;;-0.02;71.55
19890;BME280;10107;51.198;6.824;2022-12-13T13:16:57;-21322.88;;;0.06;70.07
19890;BME280;10107;51.198;6.824;2022-12-13T13:25:23;-21325.56;;;0.16;70.71
19890;BME280;10107;51.198;6.824;2022-12-13T13:33:44;-21325.56;;;0.16;69.07
19890;BME280;10107;51.198;6.824;2022-12-13T13:37:47;-21325.81;;;0.17;70.13
19890;BME280;10107;51.198;6.824;2022-12-13T13:42:06;-21324.88;;;0.14;69.82
19890;BME280;10107;51.198;6.824;2022-12-13T13:46:09;-21324.75;;;0.13;70.49
19890;BME280;10107;51.198;6.824;2022-12-13T13:50:17;-21325.56;;;0.16;71.24
19890;BME280;10107;51.198;6.824;2022-12-13T13:54:34;-21325.81;;;0.17;71.13
19890;BME280;10107;51.198;6.824;2022-12-13T13:58:56;-21324.75;;;0.13;69.88
19890;BME280;10107;51.198;6.824;2022-12-13T14:07:41;-21322.47;;;0.05;71.50
19890;BME280;10107;51.198;6.824;2022-12-13T14:11:56;-21319.63;;;-0.06;71.45
19890;BME280;10107;51.198;6.824;2022-12-13T14:24:49;-21313.31;;;-0.30;73.68
19890;BME280;10107;51.198;6.824;2022-12-13T14:28:52;-21310.63;;;-0.41;74.13
19890;BME280;10107;51.198;6.824;2022-12-13T14:32:54;-21307.78;;;-0.51;74.58
19890;BME280;10107;51.198;6.824;2022-12-13T14:36:57;-21305.91;;;-0.58;75.04
19890;BME280;10107;51.198;6.824;2022-12-13T14:41:01;-21304.28;;;-0.65;75.40
19890;BME280;10107;51.198;6.824;2022-12-13T14:45:13;-21301.88;;;-0.74;76.02
19890;BME280;10107;51.198;6.824;2022-12-13T14:49:16;-21299.97;;;-0.81;76.45
19890;BME280;10107;51.198;6.824;2022-12-13T14:53:22;-21297.97;;;-0.89;76.93
19890;BME280;10107;51.198;6.824;2022-12-13T14:57:27;-21296.09;;;-0.96;77.95
19890;BME280;10107;51.198;6.824;2022-12-13T15:01:29;-21294.59;;;-1.02;78.03
19890;BME280;10107;51.198;6.824;2022-12-13T15:05:32;-21293.53;;;-1.06;78.75
19890;BME280;10107;51.198;6.824;2022-12-13T15:09:37;-21291.38;;;-1.14;79.08
19890;BME280;10107;51.198;6.824;2022-12-13T15:13:40;-21290.03;;;-1.19;79.37
19890;BME280;10107;51.198;6.824;2022-12-13T15:17:43;-21288.13;;;-1.26;79.69
19890;BME280;10107;51.198;6.824;2022-12-13T15:21:54;-21285.16;;;-1.37;80.34
19890;BME280;10107;51.198;6.824;2022-12-13T15:25:56;-21282.34;;;-1.48;81.85
19890;BME280;10107;51.198;6.824;2022-12-13T15:30:00;-21279.91;;;-1.57;82.08
19890;BME280;10107;51.198;6.824;2022-12-13T15:34:20;-21278.16;;;-1.64;82.65
19890;BME280;10107;51.198;6.824;2022-12-13T15:38:22;-21276.25;;;-1.71;83.77
19890;BME280;10107;51.198;6.824;2022-12-13T15:42:26;-21274.66;;;-1.77;84.43
19890;BME280;10107;51.198;6.824;2022-12-13T15:46:31;-21273.03;;;-1.84;85.22
19890;BME280;10107;51.198;6.824;2022-12-13T15:50:36;-21271.00;;;-1.91;85.85
19890;BME280;10107;51.198;6.824;2022-12-13T15:54:38;-21270.06;;;-1.95;86.68
19890;BME280;10107;51.198;6.824;2022-12-13T15:58:40;-21269.94;;;-1.95;86.78
19890;BME280;10107;51.198;6.824;2022-12-13T16:02:47;-21267.38;;;-2.05;87.61
19890;BME280;10107;51.198;6.824;2022-12-13T16:06:50;-21268.03;;;-2.03;87.00
19890;BME280;10107;51.198;6.824;2022-12-13T16:10:54;-21266.56;;;-2.08;87.80
19890;BME280;10107;51.198;6.824;2022-12-13T16:15:05;-21266.41;;;-2.09;87.71
19890;BME280;10107;51.198;6.824;2022-12-13T16:19:12;-21267.09;;;-2.06;87.48
19890;BME280;10107;51.198;6.824;2022-12-13T16:23:14;-21267.22;;;-2.06;87.59
19890;BME280;10107;51.198;6.824;2022-12-13T16:27:15;-21267.22;;;-2.06;87.92
19890;BME280;10107;51.198;6.824;2022-12-13T16:31:18;-21266.81;;;-2.07;88.23
19890;BME280;10107;51.198;6.824;2022-12-13T16:35:22;-21265.88;;;-2.11;88.82
19890;BME280;10107;51.198;6.824;2022-12-13T16:39:23;-21267.38;;;-2.05;87.13
19890;BME280;10107;51.198;6.824;2022-12-13T16:43:25;-21267.78;;;-2.04;87.91
19890;BME280;10107;51.198;6.824;2022-12-13T16:47:27;-21267.50;;;-2.05;88.27
19890;BME280;10107;51.198;6.824;2022-12-13T16:51:32;-21266.41;;;-2.09;88.43
19890;BME280;10107;51.198;6.824;2022-12-13T16:55:34;-21266.16;;;-2.10;88.09
19890;BME280;10107;51.198;6.824;2022-12-13T16:59:36;-21266.16;;;-2.10;88.23
19890;BME280;10107;51.198;6.824;2022-12-13T17:03:37;-21265.22;;;-2.13;88.19
19890;BME280;10107;51.198;6.824;2022-12-13T17:07:40;-21264.66;;;-2.15;88.43
19890;BME280;10107;51.198;6.824;2022-12-13T17:11:42;-21264.41;;;-2.16;87.80
19890;BME280;10107;51.198;6.824;2022-12-13T17:15:43;-21263.31;;;-2.21;88.21
19890;BME280;10107;51.198;6.824;2022-12-13T17:19:45;-21262.50;;;-2.24;88.78
19890;BME280;10107;51.198;6.824;2022-12-13T17:23:48;-21261.97;;;-2.26;87.92
19890;BME280;10107;51.198;6.824;2022-12-13T17:27:49;-21263.06;;;-2.22;87.14
19890;BME280;10107;51.198;6.824;2022-12-13T17:31:51;-21263.19;;;-2.21;87.58
19890;BME280;10107;51.198;6.824;2022-12-13T17:35:52;-21262.09;;;-2.25;87.60
19890;BME280;10107;51.198;6.824;2022-12-13T17:39:55;-21261.44;;;-2.28;88.02
19890;BME280;10107;51.198;6.824;2022-12-13T17:43:57;-21260.91;;;-2.30;87.01
19890;BME280;10107;51.198;6.824;2022-12-13T17:47:59;-21261.56;;;-2.27;86.05
19890;BME280;10107;51.198;6.824;2022-12-13T17:52:01;-21261.16;;;-2.29;86.34
19890;BME280;10107;51.198;6.824;2022-12-13T17:56:05;-21259.28;;;-2.36;87.10
19890;BME280;10107;51.198;6.824;2022-12-13T18:00:07;-21260.50;;;-2.31;85.44
19890;BME280;10107;51.198;6.824;2022-12-13T18:04:12;-21260.34;;;-2.32;85.19
19890;BME280;10107;51.198;6.824;2022-12-13T18:08:15;-21258.72;;;-2.38;85.60
19890;BME280;10107;51.198;6.824;2022-12-13T18:12:18;-21258.88;;;-2.37;85.24
19890;BME280;10107;51.198;6.824;2022-12-13T18:16:20;-21258.59;;;-2.39;85.17
19890;BME280;10107;51.198;6.824;2022-12-13T18:20:22;-21258.47;;;-2.39;85.41
19890;BME280;10107;51.198;6.824;2022-12-13T18:24:24;-21260.22;;;-2.32;84.38
19890;BME280;10107;51.198;6.824;2022-12-13T18:28:28;-21259.28;;;-2.36;84.44
19890;BME280;10107;51.198;6.824;2022-12-13T18:32:29;-21258.34;;;-2.40;83.85
19890;BME280;10107;51.198;6.824;2022-12-13T18:36:31;-21258.34;;;-2.40;82.88
19890;BME280;10107;51.198;6.824;2022-12-13T18:40:32;-21258.19;;;-2.40;83.39
19890;BME280;10107;51.198;6.824;2022-12-13T18:44:35;-21257.78;;;-2.42;82.43
19890;BME280;10107;51.198;6.824;2022-12-13T18:48:37;-21257.78;;;-2.42;82.75
19890;BME280;10107;51.198;6.824;2022-12-13T18:52:38;-21257.66;;;-2.42;82.84
19890;BME280;10107;51.198;6.824;2022-12-13T18:56:40;-21257.38;;;-2.43;82.77
19890;BME280;10107;51.198;6.824;2022-12-13T19:00:43;-21256.97;;;-2.45;83.30
19890;BME280;10107;51.198;6.824;2022-12-13T19:04:45;-21256.03;;;-2.48;82.85
19890;BME280;10107;51.198;6.824;2022-12-13T19:08:47;-21254.69;;;-2.53;82.80
19890;BME280;10107;51.198;6.824;2022-12-13T19:12:49;-21254.28;;;-2.55;83.80
19890;BME280;10107;51.198;6.824;2022-12-13T19:16:51;-21253.75;;;-2.57;83.76
19890;BME280;10107;51.198;6.824;2022-12-13T19:20:53;-21252.66;;;-2.61;84.36
19890;BME280;10107;51.198;6.824;2022-12-13T19:24:55;-21250.63;;;-2.69;83.77
19890;BME280;10107;51.198;6.824;2022-12-13T19:28:57;-21250.38;;;-2.70;84.39
19890;BME280;10107;51.198;6.824;2022-12-13T19:33:00;-21249.28;;;-2.74;84.54
19890;BME280;10107;51.198;6.824;2022-12-13T19:37:02;-21247.78;;;-2.80;85.28
19890;BME280;10107;51.198;6.824;2022-12-13T19:41:07;-21247.66;;;-2.80;85.72
19890;BME280;10107;51.198;6.824;2022-12-13T19:45:09;-21247.78;;;-2.80;84.49
19890;BME280;10107;51.198;6.824;2022-12-13T19:49:12;-21248.19;;;-2.78;85.23
19890;BME280;10107;51.198;6.824;2022-12-13T19:53:14;-21246.59;;;-2.84;86.30
19890;BME280;10107;51.198;6.824;2022-12-13T19:57:16;-21245.38;;;-2.89;87.06
19890;BME280;10107;51.198;6.824;2022-12-13T20:01:18;-21243.22;;;-2.97;87.80
19890;BME280;10107;51.198;6.824;2022-12-13T20:05:21;-21240.66;;;-3.07;88.43
19890;BME280;10107;51.198;6.824;2022-12-13T20:09:22;-21237.94;;;-3.17;89.02
19890;BME280;10107;51.198;6.824;2022-12-13T20:13:24;-21238.88;;;-3.13;87.30
19890;BME280;10107;51.198;6.824;2022-12-13T20:17:26;-21239.28;;;-3.12;88.04
19890;BME280;10107;51.198;6.824;2022-12-13T20:21:29;-21237.81;;;-3.17;88.04
19890;BME280;10107;51.198;6.824;2022-12-13T20:25:30;-21237.13;;;-3.20;88.30
19890;BME280;10107;51.198;6.824;2022-12-13T20:29:32;-21237.25;;;-3.20;89.27
19890;BME280;10107;51.198;6.824;2022-12-13T20:33:33;-21237.81;;;-3.17;88.53
19890;BME280;10107;51.198;6.824;2022-12-13T20:37:36;-21238.63;;;-3.14;88.88
19890;BME280;10107;51.198;6.824;2022-12-13T20:41:38;-21238.63;;;-3.14;87.75
19890;BME280;10107;51.198;6.824;2022-12-13T20:45:39;-21240.25;;;-3.08;85.38
19890;BME280;10107;51.198;6.824;2022-12-13T20:49:41;-21241.44;;;-3.04;85.37
19890;BME280;10107;51.198;6.824;2022-12-13T20:53:45;-21242.53;;;-3.00;84.01
19890;BME280;10107;51.198;6.824;2022-12-13T20:57:47;-21243.63;;;-2.95;83.68
19890;BME280;10107;51.198;6.824;2022-12-13T21:01:48;-21244.69;;;-2.91;82.21
19890;BME280;10107;51.198;6.824;2022-12-13T21:05:50;-21245.78;;;-2.87;80.35
19890;BME280;10107;51.198;6.824;2022-12-13T21:09:52;-21247.25;;;-2.82;79.89
19890;BME280;10107;51.198;6.824;2022-12-13T21:13:55;-21247.13;;;-2.82;79.42
19890;BME280;10107;51.198;6.824;2022-12-13T21:17:57;-21247.25;;;-2.82;78.68
19890;BME280;10107;51.198;6.824;2022-12-13T21:21:58;-21246.44;;;-2.85;79.03
19890;BME280;10107;51.198;6.824;2022-12-13T21:26:01;-21245.50;;;-2.88;78.90
19890;BME280;10107;51.198;6.824;2022-12-13T21:30:04;-21245.22;;;-2.89;79.01
19890;BME280;10107;51.198;6.824;2022-12-13T21:34:05;-21245.22;;;-2.89;78.48